Time;durP1;ratioP1;P1;durP2;ratioP2;P2;SDS_P1;SDS_P2;PMS_P1;PMS_P2;Temp;Humidity;BMP_temperature;BMP_pressure;BME280_temperature;BME280_humidity;BME280_pressure;Samples;Min_cycle;Max_cycle;Signal;HPM_P1;HPM_P2
2022/10/26 00:00:52;;;;;;;2.87;2.60;;;14.90;1.00;;;;;;5089517;28;20527;-81
2022/10/26 00:03:20;;;;;;;2.63;2.40;;;14.90;99.90;;;;;;5080087;28;20488;-82
2022/10/26 00:05:49;;;;;;;2.83;2.63;;;15.00;1.00;;;;;;5091110;28;20447;-82
2022/10/26 00:08:17;;;;;;;2.67;2.27;;;15.00;99.90;;;;;;5081166;28;20819;-82
2022/10/26 00:10:45;;;;;;;3.10;2.90;;;15.00;10.80;;;;;;5085036;28;22267;-81
2022/10/26 00:13:14;;;;;;;2.70;2.50;;;15.10;1.00;;;;;;5086911;28;20471;-81
2022/10/26 00:15:42;;;;;;;2.43;2.23;;;15.10;1.00;;;;;;5077583;28;20459;-81
2022/10/26 00:18:10;;;;;;;6.10;3.10;;;15.10;1.00;;;;;;5082099;28;20455;-82
2022/10/26 00:20:38;;;;;;;2.73;2.57;;;15.20;1.00;;;;;;5085712;28;20452;-81
2022/10/26 00:23:07;;;;;;;2.63;2.43;;;15.20;1.00;;;;;;5087087;28;20498;-81
2022/10/26 00:25:35;;;;;;;7.50;2.93;;;15.10;99.90;;;;;;5081889;28;20852;-82
2022/10/26 00:28:04;;;;;;;2.40;2.20;;;15.10;99.90;;;;;;5081121;28;20494;-81
2022/10/26 00:30:32;;;;;;;3.40;2.03;;;15.10;1.00;;;;;;5083989;28;20460;-80
2022/10/26 00:33:00;;;;;;;2.70;2.50;;;15.10;1.00;;;;;;5079564;28;20474;-81
2022/10/26 00:35:28;;;;;;;2.73;2.50;;;15.10;1.00;;;;;;5082290;28;20458;-81
2022/10/26 00:38:14;;;;;;;3.83;2.20;;;15.00;99.90;;;;;;5087716;28;20469;-81
2022/10/26 00:40:43;;;;;;;2.37;2.20;;;15.20;99.90;;;;;;5087502;28;20455;-82
2022/10/26 00:43:16;;;;;;;3.63;2.70;;;15.20;99.90;;;;;;5084365;28;20470;-81
2022/10/26 00:45:45;;;;;;;2.53;2.33;;;15.00;1.00;;;;;;5086918;28;20455;-81
2022/10/26 00:48:21;;;;;;;2.30;2.20;;;15.10;99.90;;;;;;5085788;28;20473;-81
2022/10/26 00:50:49;;;;;;;2.50;2.40;;;15.20;1.00;;;;;;5078368;28;21067;-81
2022/10/26 00:53:19;;;;;;;7.23;2.37;;;15.10;94.40;;;;;;5084886;28;21071;-81
2022/10/26 00:55:50;;;;;;;4.93;2.23;;;15.20;99.90;;;;;;5086550;28;20470;-81
2022/10/26 00:58:20;;;;;;;2.13;2.03;;;15.20;1.00;;;;;;5082404;28;20455;-82
2022/10/26 01:00:49;;;;;;;6.50;2.40;;;15.20;99.90;;;;;;5088618;28;20450;-80
2022/10/26 01:03:18;;;;;;;4.20;3.53;;;15.30;1.00;;;;;;5084013;28;20474;-81
2022/10/26 01:05:49;;;;;;;2.63;2.00;;;15.20;1.00;;;;;;5082882;28;20465;-80
2022/10/26 01:08:18;;;;;;;2.60;2.40;;;15.20;1.00;;;;;;5088767;28;20476;-81
2022/10/26 01:10:47;;;;;;;3.90;2.47;;;15.20;1.00;;;;;;5089747;28;20463;-81
2022/10/26 01:13:17;;;;;;;2.37;2.17;;;15.10;19.20;;;;;;5085047;28;20518;-81
2022/10/26 01:15:56;;;;;;;2.73;2.33;;;15.20;1.00;;;;;;5087979;28;20489;-81
2022/10/26 01:18:34;;;;;;;2.77;2.67;;;15.10;99.90;;;;;;5084691;28;20542;-81
2022/10/26 01:21:27;;;;;;;2.10;2.00;;;15.10;99.90;;;;;;5088996;28;20494;-81
2022/10/26 01:24:23;;;;;;;4.70;1.97;;;15.10;99.90;;;;;;5080484;28;20958;-81
2022/10/26 01:27:06;;;;;;;2.10;2.00;;;15.10;99.90;;;;;;5075321;28;20446;-82
2022/10/26 01:30:19;;;;;;;2.30;2.20;;;15.00;99.90;;;;;;5087660;28;20561;-82
2022/10/26 01:32:57;;;;;;;2.70;2.50;;;14.90;99.90;;;;;;5036569;28;20576;-82
2022/10/26 01:35:29;;;;;;;5.90;2.50;;;15.00;99.90;;;;;;5073216;28;20511;-82
2022/10/26 01:38:03;;;;;;;2.50;2.30;;;14.90;99.90;;;;;;5083601;28;20446;-81
2022/10/26 01:40:37;;;;;;;3.80;2.80;;;15.00;1.00;;;;;;5082718;28;21107;-82
2022/10/26 01:43:08;;;;;;;3.50;3.10;;;15.00;1.00;;;;;;5081919;28;20537;-81
2022/10/26 01:45:42;;;;;;;4.43;2.33;;;15.10;1.00;;;;;;5080305;28;20461;-81
2022/10/26 01:48:15;;;;;;;7.47;3.10;;;15.10;1.00;;;;;;5082109;28;20477;-81
2022/10/26 01:50:47;;;;;;;3.53;2.57;;;15.20;99.90;;;;;;5085697;28;20957;-82
2022/10/26 01:53:16;;;;;;;2.43;2.30;;;15.10;99.90;;;;;;5083591;28;20513;-82
2022/10/26 01:55:48;;;;;;;2.50;2.30;;;15.00;43.00;;;;;;5081056;28;21281;-81
2022/10/26 01:58:40;;;;;;;3.70;2.70;;;14.90;99.90;;;;;;5082347;28;20941;-80
2022/10/26 02:01:22;;;;;;;2.50;2.40;;;14.90;1.00;;;;;;5079262;28;20462;-81
2022/10/26 02:03:55;;;;;;;2.90;2.70;;;15.00;1.00;;;;;;5079615;28;20742;-81
2022/10/26 02:06:33;;;;;;;66.57;41.40;;;15.10;1.00;;;;;;5084312;28;20501;-81
2022/10/26 02:09:11;;;;;;;24.90;18.50;;;15.10;1.00;;;;;;5080777;28;21306;-81
2022/10/26 02:11:42;;;;;;;11.60;9.07;;;15.00;1.00;;;;;;5084591;28;20474;-81
2022/10/26 02:14:16;;;;;;;10.57;7.97;;;15.00;1.00;;;;;;5082319;28;20466;-82
2022/10/26 02:16:54;;;;;;;5.20;4.43;;;14.90;1.00;;;;;;5083373;28;20459;-82
2022/10/26 02:19:32;;;;;;;3.77;3.17;;;14.90;1.00;;;;;;5085342;28;20434;-82
2022/10/26 02:22:07;;;;;;;2.97;2.60;;;14.90;1.00;;;;;;5087281;28;20569;-83
2022/10/26 02:24:37;;;;;;;2.43;2.30;;;14.80;1.00;;;;;;5083826;28;20442;-82
2022/10/26 02:27:07;;;;;;;3.43;3.13;;;14.90;99.90;;;;;;5079605;28;20443;-81
2022/10/26 02:29:37;;;;;;;2.87;2.67;;;15.00;63.90;;;;;;5072378;28;20542;-82
2022/10/26 02:32:09;;;;;;;3.53;2.40;;;15.10;99.90;;;;;;5084433;28;20523;-81
2022/10/26 02:34:39;;;;;;;2.80;2.47;;;15.10;1.00;;;;;;5084948;28;20501;-81
2022/10/26 02:37:08;;;;;;;2.67;2.47;;;15.10;1.00;;;;;;5087295;28;20446;-81
2022/10/26 02:39:38;;;;;;;4.87;2.80;;;15.00;99.90;;;;;;5086518;28;20459;-80
2022/10/26 02:42:09;;;;;;;3.67;2.57;;;15.10;1.00;;;;;;5076561;28;20492;-80
2022/10/26 02:44:44;;;;;;;2.93;2.70;;;15.10;99.90;;;;;;5104237;28;21221;-81
2022/10/26 02:47:13;;;;;;;3.03;2.83;;;15.10;99.90;;;;;;5082314;28;20508;-82
2022/10/26 02:49:42;;;;;;;3.67;3.27;;;15.10;1.00;;;;;;5083871;28;20512;-81
2022/10/26 02:52:18;;;;;;;2.90;2.70;;;15.10;1.00;;;;;;5084802;28;21065;-81
2022/10/26 02:54:53;;;;;;;3.00;2.80;;;15.10;99.90;;;;;;5087756;28;21211;-81
2022/10/26 02:57:27;;;;;;;6.63;2.90;;;15.10;99.90;;;;;;5080954;28;20484;-81
2022/10/26 02:59:56;;;;;;;3.30;2.50;;;15.20;99.90;;;;;;5085822;28;20545;-81
2022/10/26 03:02:28;;;;;;;3.43;3.13;;;15.20;42.30;;;;;;5088030;28;20475;-81
2022/10/26 03:05:04;;;;;;;2.90;2.47;;;15.30;44.20;;;;;;5087501;28;20515;-82
2022/10/26 03:07:32;;;;;;;3.20;3.00;;;15.30;40.10;;;;;;5080595;28;20526;-81
2022/10/26 03:10:00;;;;;;;11.00;2.80;;;15.20;99.90;;;;;;5086612;28;20673;-82
2022/10/26 03:12:29;;;;;;;3.00;2.80;;;15.30;98.20;;;;;;5087004;28;20466;-81
2022/10/26 03:14:57;;;;;;;3.77;2.73;;;15.30;99.90;;;;;;5089220;28;20487;-81
2022/10/26 03:17:26;;;;;;;3.10;2.90;;;15.30;1.00;;;;;;5089543;28;20457;-82
2022/10/26 03:19:55;;;;;;;3.77;2.53;;;15.20;99.90;;;;;;5084345;28;20840;-81
2022/10/26 03:22:23;;;;;;;3.60;2.70;;;15.20;99.90;;;;;;5083747;28;20503;-81
2022/10/26 03:24:51;;;;;;;5.20;3.47;;;15.30;99.90;;;;;;5091730;28;20453;-81
2022/10/26 03:27:19;;;;;;;3.73;3.17;;;15.30;1.00;;;;;;5089342;28;20447;-81
2022/10/26 03:29:47;;;;;;;3.37;2.37;;;15.20;1.00;;;;;;5089300;28;20525;-81
2022/10/26 03:32:15;;;;;;;3.10;2.70;;;15.20;99.90;;;;;;5087469;28;20571;-81
2022/10/26 03:34:44;;;;;;;3.43;3.13;;;15.30;42.20;;;;;;5090679;28;20563;-81
2022/10/26 03:37:13;;;;;;;4.57;3.10;;;15.30;1.00;;;;;;5093094;28;20805;-81
2022/10/26 03:39:41;;;;;;;3.47;2.70;;;15.40;1.00;;;;;;5089526;28;20466;-81
2022/10/26 03:42:09;;;;;;;3.30;3.00;;;15.40;99.90;;;;;;5087171;28;20856;-81
2022/10/26 03:44:37;;;;;;;2.50;2.30;;;15.40;1.00;;;;;;5084988;28;20483;-80
2022/10/26 03:47:05;;;;;;;3.57;2.60;;;15.40;1.00;;;;;;5088356;28;20456;-81
2022/10/26 03:49:33;;;;;;;2.50;2.30;;;15.50;99.90;;;;;;5085717;28;20473;-82
2022/10/26 03:52:03;;;;;;;4.63;2.50;;;15.50;99.90;;;;;;5086109;28;20483;-81
2022/10/26 03:54:31;;;;;;;4.47;2.17;;;15.40;1.00;;;;;;5078809;28;20457;-82
2022/10/26 03:56:59;;;;;;;3.23;3.00;;;15.40;43.10;;;;;;5091187;28;20501;-83
2022/10/26 03:59:27;;;;;;;2.77;2.57;;;15.40;1.00;;;;;;5083753;28;20478;-82
2022/10/26 04:01:55;;;;;;;3.10;2.90;;;15.30;99.90;;;;;;5089423;28;20472;-82
2022/10/26 04:04:25;;;;;;;4.60;2.73;;;15.30;99.90;;;;;;5089658;28;20485;-82
2022/10/26 04:07:03;;;;;;;3.93;2.60;;;15.30;1.00;;;;;;5085487;28;20471;-82
2022/10/26 04:09:31;;;;;;;2.73;2.63;;;15.40;99.90;;;;;;5091737;28;20528;-86
2022/10/26 04:11:59;;;;;;;3.97;2.73;;;15.40;1.00;;;;;;5087517;28;20474;-83
2022/10/26 04:14:27;;;;;;;4.87;2.93;;;15.40;99.90;;;;;;5084858;28;20487;-84
2022/10/26 04:16:55;;;;;;;3.10;2.73;;;15.50;1.00;;;;;;5095625;28;20470;-82
2022/10/26 04:19:24;;;;;;;3.60;3.23;;;15.50;99.90;;;;;;5093935;28;20447;-84
2022/10/26 04:21:52;;;;;;;2.93;2.70;;;15.50;1.00;;;;;;5080569;28;20514;-84
2022/10/26 04:24:21;;;;;;;4.07;3.67;;;15.50;1.00;;;;;;5088755;28;20442;-82
2022/10/26 04:26:49;;;;;;;3.03;2.90;;;15.40;99.90;;;;;;5090546;28;20503;-82
2022/10/26 04:29:17;;;;;;;3.93;2.70;;;15.40;99.90;;;;;;5090755;28;20447;-82
2022/10/26 04:31:45;;;;;;;3.27;3.13;;;15.30;99.90;;;;;;5082066;28;21366;-80
2022/10/26 04:34:14;;;;;;;5.57;3.60;;;15.30;99.90;;;;;;5086190;28;20481;-82
2022/10/26 04:36:42;;;;;;;5.67;3.63;;;15.30;99.90;;;;;;5084701;28;20478;-82
2022/10/26 04:39:10;;;;;;;4.27;3.20;;;15.30;99.90;;;;;;5091009;28;20490;-81
2022/10/26 04:41:39;;;;;;;3.50;3.23;;;15.30;99.90;;;;;;5086609;28;20475;-84
2022/10/26 04:44:07;;;;;;;3.30;3.10;;;15.30;99.90;;;;;;5093526;28;21008;-85
2022/10/26 04:46:35;;;;;;;5.83;4.03;;;15.30;99.90;;;;;;5088818;28;20518;-84
2022/10/26 04:49:03;;;;;;;4.07;3.80;;;15.40;99.90;;;;;;5086624;28;20936;-86
2022/10/26 04:51:31;;;;;;;8.30;3.20;;;15.40;99.90;;;;;;5092039;28;20489;-84
2022/10/26 04:54:00;;;;;;;5.97;3.50;;;15.30;99.90;;;;;;5086504;28;20452;-84
2022/10/26 04:56:28;;;;;;;3.27;3.07;;;15.30;99.90;;;;;;5088279;28;20465;-83
2022/10/26 04:58:57;;;;;;;3.20;3.00;;;15.30;99.90;;;;;;5087399;28;20458;-84
2022/10/26 05:01:25;;;;;;;4.30;3.07;;;15.40;61.20;;;;;;5084900;28;20478;-85
2022/10/26 05:03:54;;;;;;;3.20;3.00;;;15.30;99.90;;;;;;5091254;28;20469;-83
2022/10/26 05:06:22;;;;;;;3.43;3.23;;;15.30;99.90;;;;;;5092686;28;20553;-82
2022/10/26 05:08:50;;;;;;;3.47;3.30;;;15.40;99.90;;;;;;5089060;28;20505;-82
2022/10/26 05:11:19;;;;;;;4.47;3.20;;;15.40;99.90;;;;;;5086669;28;20477;-82
2022/10/26 05:13:47;;;;;;;3.20;2.90;;;15.40;99.90;;;;;;5090472;28;20454;-81
2022/10/26 05:16:17;;;;;;;3.90;3.60;;;15.40;99.90;;;;;;5087116;28;20531;-81
2022/10/26 05:18:48;;;;;;;3.47;3.27;;;15.40;1.00;;;;;;5077363;28;20455;-80
2022/10/26 05:21:18;;;;;;;6.53;3.70;;;15.50;1.00;;;;;;5088721;28;20454;-86
2022/10/26 05:23:51;;;;;;;3.80;3.60;;;15.50;19.90;;;;;;5090106;28;20503;-84
2022/10/26 05:26:19;;;;;;;3.80;3.47;;;15.50;1.00;;;;;;5089508;28;20989;-84
2022/10/26 05:28:47;;;;;;;3.10;2.93;;;15.50;1.00;;;;;;5086037;28;21060;-84
2022/10/26 05:31:17;;;;;;;4.77;3.17;;;15.50;35.60;;;;;;5085022;28;20876;-83
2022/10/26 05:33:48;;;;;;;3.70;3.50;;;15.50;86.40;;;;;;5090346;28;20503;-83
2022/10/26 05:36:16;;;;;;;4.23;4.03;;;15.40;1.00;;;;;;5084952;28;20460;-81
2022/10/26 05:38:45;;;;;;;3.77;3.57;;;15.40;18.90;;;;;;5083882;28;20493;-84
2022/10/26 05:41:13;;;;;;;3.53;3.20;;;15.40;44.20;;;;;;5089281;28;20846;-83
2022/10/26 05:43:41;;;;;;;3.67;3.37;;;15.50;99.90;;;;;;5084080;28;20457;-84
2022/10/26 05:46:09;;;;;;;4.23;3.63;;;15.50;1.00;;;;;;5085666;28;20474;-83
2022/10/26 05:48:38;;;;;;;4.17;3.17;;;15.50;22.00;;;;;;5083043;28;20451;-83
2022/10/26 05:51:06;;;;;;;3.77;3.50;;;15.50;99.90;;;;;;5079987;28;20478;-83
2022/10/26 05:53:35;;;;;;;4.03;3.63;;;15.40;99.90;;;;;;5091783;28;20446;-83
2022/10/26 05:56:03;;;;;;;3.43;3.13;;;15.40;99.90;;;;;;5091298;28;20449;-83
2022/10/26 05:58:38;;;;;;;3.53;3.23;;;15.30;99.90;;;;;;5085092;28;20480;-81
2022/10/26 06:01:19;;;;;;;3.20;3.00;;;15.30;99.90;;;;;;5084685;28;20441;-84
2022/10/26 06:04:03;;;;;;;3.90;3.40;;;15.50;99.90;;;;;;5090053;28;20565;-83
2022/10/26 06:06:38;;;;;;;4.40;4.20;;;15.50;99.90;;;;;;5088172;28;20449;-82
2022/10/26 06:09:09;;;;;;;3.83;3.53;;;15.40;99.90;;;;;;5072851;28;20958;-83
2022/10/26 06:11:37;;;;;;;3.23;3.10;;;15.50;99.90;;;;;;5084464;28;20618;-82
2022/10/26 06:14:06;;;;;;;3.93;3.50;;;15.50;99.90;;;;;;5077535;28;21152;-82
2022/10/26 06:16:46;;;;;;;4.03;3.70;;;15.40;99.90;;;;;;5086815;28;20474;-81
2022/10/26 06:19:24;;;;;;;4.30;4.10;;;15.50;99.90;;;;;;5088529;28;20542;-82
2022/10/26 06:22:02;;;;;;;4.37;3.97;;;15.50;99.90;;;;;;5085229;28;20925;-83
2022/10/26 06:24:37;;;;;;;3.50;3.30;;;15.60;99.90;;;;;;5084940;28;20848;-81
2022/10/26 06:27:17;;;;;;;3.40;3.20;;;15.60;90.20;;;;;;5085769;28;20445;-82
2022/10/26 06:29:55;;;;;;;3.40;2.70;;;15.60;61.70;;;;;;5079747;28;20454;-81
2022/10/26 06:32:24;;;;;;;3.57;3.27;;;15.60;74.00;;;;;;5080660;28;20496;-85
2022/10/26 06:35:00;;;;;;;4.30;3.77;;;15.50;54.00;;;;;;5086338;28;20478;-82
2022/10/26 06:37:35;;;;;;;6.43;3.70;;;15.50;99.90;;;;;;5077327;28;20491;-81
2022/10/26 06:40:06;;;;;;;4.33;3.40;;;15.50;99.90;;;;;;5081042;28;20454;-82
2022/10/26 06:42:34;;;;;;;4.07;3.50;;;15.60;99.90;;;;;;5085061;28;20543;-82
2022/10/26 06:45:03;;;;;;;3.50;3.30;;;15.50;99.90;;;;;;5078624;28;20465;-81
2022/10/26 06:47:38;;;;;;;3.97;3.50;;;15.60;99.90;;;;;;5082390;28;21366;-82
2022/10/26 06:50:19;;;;;;;4.73;3.77;;;15.70;84.90;;;;;;5077252;28;20463;-81
2022/10/26 06:52:55;;;;;;;3.63;3.33;;;15.70;1.00;;;;;;5081955;28;21189;-82
2022/10/26 06:55:25;;;;;;;4.03;3.83;;;15.80;1.00;;;;;;5083711;28;20481;-85
2022/10/26 06:57:54;;;;;;;4.07;3.77;;;15.80;1.00;;;;;;5077501;28;20533;-82
2022/10/26 07:00:24;;;;;;;3.83;3.50;;;15.80;1.00;;;;;;5078131;28;20548;-83
2022/10/26 07:02:52;;;;;;;3.43;3.13;;;15.80;1.00;;;;;;5096790;28;20476;-82
2022/10/26 07:05:23;;;;;;;4.10;3.90;;;15.80;1.00;;;;;;5083806;28;20457;-82
2022/10/26 07:07:51;;;;;;;4.00;3.77;;;15.80;1.00;;;;;;5081738;28;20458;-84
2022/10/26 07:10:19;;;;;;;4.93;4.40;;;15.80;1.00;;;;;;5080959;28;20941;-82
2022/10/26 07:12:48;;;;;;;13.60;5.07;;;15.80;1.00;;;;;;5084094;28;20501;-83
2022/10/26 07:15:16;;;;;;;4.47;4.10;;;15.80;1.00;;;;;;5078384;28;20944;-84
2022/10/26 07:17:45;;;;;;;4.10;3.70;;;15.80;1.00;;;;;;5077082;28;20449;-81
2022/10/26 07:20:14;;;;;;;4.57;4.10;;;15.80;1.00;;;;;;5086277;28;20434;-82
2022/10/26 07:22:44;;;;;;;3.80;3.47;;;15.80;64.40;;;;;;5079411;28;20477;-82
2022/10/26 07:25:12;;;;;;;7.37;3.77;;;15.70;99.90;;;;;;5079424;28;20460;-82
2022/10/26 07:27:40;;;;;;;4.13;3.83;;;15.70;99.90;;;;;;5082573;28;20526;-82
2022/10/26 07:30:10;;;;;;;6.80;3.93;;;15.80;99.90;;;;;;5085855;28;20454;-82
2022/10/26 07:32:38;;;;;;;4.60;4.27;;;15.70;99.90;;;;;;5080186;28;20514;-82
2022/10/26 07:35:07;;;;;;;5.40;5.00;;;15.80;99.90;;;;;;5085386;28;20465;-82
2022/10/26 07:37:36;;;;;;;6.00;5.40;;;15.80;89.20;;;;;;5081788;28;20447;-83
2022/10/26 07:40:07;;;;;;;5.00;4.70;;;15.80;99.90;;;;;;5086029;28;20490;-84
2022/10/26 07:42:36;;;;;;;4.90;4.60;;;15.80;99.90;;;;;;5079932;28;21005;-82
2022/10/26 07:45:05;;;;;;;4.60;4.30;;;15.80;99.90;;;;;;5081743;28;20454;-83
2022/10/26 07:47:33;;;;;;;4.53;4.23;;;15.80;99.90;;;;;;5073571;28;20544;-82
2022/10/26 07:50:02;;;;;;;4.57;4.37;;;15.80;99.90;;;;;;5085755;28;20446;-83
2022/10/26 07:52:30;;;;;;;5.50;4.90;;;15.80;99.90;;;;;;5088139;28;20540;-83
2022/10/26 07:54:58;;;;;;;5.07;4.67;;;15.80;99.90;;;;;;5084303;28;20938;-83
2022/10/26 07:57:28;;;;;;;4.87;4.50;;;15.80;99.90;;;;;;5079075;28;20435;-82
2022/10/26 07:59:56;;;;;;;4.83;4.50;;;15.70;99.90;;;;;;5074816;28;20481;-81
2022/10/26 08:02:24;;;;;;;5.30;5.00;;;15.80;99.90;;;;;;5081167;28;20495;-83
2022/10/26 08:04:52;;;;;;;5.10;4.80;;;15.90;99.90;;;;;;5087551;28;20486;-82
2022/10/26 08:07:21;;;;;;;5.33;5.03;;;16.00;99.90;;;;;;5085643;28;20435;-82
2022/10/26 08:09:49;;;;;;;6.07;5.60;;;15.90;99.90;;;;;;5081113;28;20458;-82
2022/10/26 08:12:18;;;;;;;5.20;4.77;;;16.00;99.90;;;;;;5083745;28;20476;-83
2022/10/26 08:14:47;;;;;;;5.60;5.10;;;16.00;99.90;;;;;;5085733;28;20804;-82
2022/10/26 08:17:16;;;;;;;5.60;5.00;;;16.00;99.90;;;;;;5083905;28;20444;-82
2022/10/26 08:19:44;;;;;;;4.80;4.50;;;16.00;99.90;;;;;;5088845;28;20451;-82
2022/10/26 08:22:12;;;;;;;5.33;5.03;;;16.00;99.90;;;;;;5080759;28;20465;-85
2022/10/26 08:24:42;;;;;;;5.60;5.20;;;16.10;99.90;;;;;;5092617;28;20456;-80
2022/10/26 08:27:11;;;;;;;5.60;5.30;;;16.20;99.90;;;;;;5087396;28;20486;-82
2022/10/26 08:29:39;;;;;;;5.00;4.70;;;16.30;99.90;;;;;;5087445;28;20486;-82
2022/10/26 08:32:08;;;;;;;5.77;5.27;;;16.30;99.90;;;;;;5090468;28;20479;-81
2022/10/26 08:34:36;;;;;;;6.13;5.70;;;16.40;99.90;;;;;;5091531;28;20439;-82
2022/10/26 08:37:04;;;;;;;5.53;5.10;;;16.40;44.70;;;;;;5085954;28;21037;-82
2022/10/26 08:39:32;;;;;;;4.70;4.50;;;16.40;99.90;;;;;;5090571;28;20445;-81
2022/10/26 08:42:07;;;;;;;5.67;5.07;;;16.40;36.40;;;;;;5083906;28;20522;-85
2022/10/26 08:44:40;;;;;;;5.80;5.40;;;16.40;1.00;;;;;;5086216;28;20842;-81
2022/10/26 08:47:17;;;;;;;5.43;5.00;;;16.30;58.10;;;;;;5081720;28;20446;-82
2022/10/26 08:49:55;;;;;;;5.57;5.30;;;16.30;99.90;;;;;;5079084;28;20491;-81
2022/10/26 08:52:29;;;;;;;5.03;4.83;;;16.30;66.40;;;;;;5080904;28;20559;-81
2022/10/26 08:55:00;;;;;;;8.67;5.00;;;16.30;99.90;;;;;;5089951;28;20456;-82
2022/10/26 08:57:35;;;;;;;5.23;4.93;;;16.50;1.00;;;;;;5079680;28;20442;-82
2022/10/26 09:00:06;;;;;;;5.23;4.90;;;16.60;99.90;;;;;;5084149;28;20506;-82
2022/10/26 09:02:35;;;;;;;5.87;5.47;;;16.80;99.90;;;;;;5079302;28;20464;-82
2022/10/26 09:05:05;;;;;;;5.97;5.40;;;17.40;1.00;;;;;;5098068;28;20442;-82
2022/10/26 09:07:45;;;;;;;5.57;5.27;;;17.80;1.00;;;;;;5094443;28;20468;-81
2022/10/26 09:10:26;;;;;;;6.53;6.00;;;18.00;99.90;;;;;;5092036;28;21204;-83
2022/10/26 09:12:59;;;;;;;5.33;5.00;;;17.40;1.00;;;;;;5093959;28;20518;-81
2022/10/26 09:15:40;;;;;;;5.70;5.30;;;17.20;99.90;;;;;;5085393;28;20512;-84
2022/10/26 09:18:25;;;;;;;6.37;5.77;;;17.10;99.90;;;;;;5085755;28;20468;-83
2022/10/26 09:21:04;;;;;;;5.13;4.73;;;17.10;1.00;;;;;;5087335;28;20494;-82
2022/10/26 09:23:47;;;;;;;5.10;4.70;;;17.20;99.90;;;;;;5086266;28;20585;-82
2022/10/26 09:26:24;;;;;;;5.80;5.43;;;17.30;99.90;;;;;;5086815;28;20446;-82
2022/10/26 09:28:53;;;;;;;5.17;4.87;;;18.40;18.60;;;;;;5091441;28;20445;-82
2022/10/26 09:31:23;;;;;;;6.33;5.73;;;19.60;1.00;;;;;;5090335;28;20742;-82
2022/10/26 09:33:55;;;;;;;4.50;4.30;;;20.40;99.90;;;;;;5086144;28;20507;-82
2022/10/26 09:36:23;;;;;;;5.03;4.63;;;20.50;3.80;;;;;;5085249;28;20458;-82
2022/10/26 09:38:58;;;;;;;4.50;4.20;;;20.60;1.00;;;;;;5087048;28;20469;-82
2022/10/26 09:41:30;;;;;;;4.60;4.30;;;20.90;1.00;;;;;;5090183;28;20482;-82
2022/10/26 09:44:05;;;;;;;5.27;4.33;;;21.50;1.00;;;;;;5086980;28;20452;-82
2022/10/26 09:46:41;;;;;;;8.33;4.63;;;22.20;1.00;;;;;;5084889;28;20447;-83
2022/10/26 09:49:14;;;;;;;7.60;4.27;;;22.30;1.00;;;;;;5081589;28;20460;-81
2022/10/26 09:51:45;;;;;;;4.20;3.83;;;21.70;1.00;;;;;;5084524;28;20524;-81
2022/10/26 09:54:16;;;;;;;6.30;4.20;;;21.00;1.00;;;;;;5086148;28;20531;-82
2022/10/26 09:56:46;;;;;;;6.00;3.90;;;20.40;1.00;;;;;;5077513;28;20450;-82
2022/10/26 09:59:16;;;;;;;5.03;4.10;;;20.00;1.00;;;;;;5088896;28;20467;-82
2022/10/26 10:01:44;;;;;;;5.63;5.10;;;19.90;71.30;;;;;;5089034;28;20980;-83
2022/10/26 10:04:21;;;;;;;4.30;3.63;;;19.70;99.90;;;;;;5087638;28;20439;-81
2022/10/26 10:06:51;;;;;;;4.23;3.93;;;19.90;99.90;;;;;;5092083;28;20475;-81
2022/10/26 10:09:21;;;;;;;4.70;4.30;;;20.00;99.90;;;;;;5089443;28;20574;-83
2022/10/26 10:11:55;;;;;;;4.03;3.73;;;22.00;1.00;;;;;;5094119;28;20458;-83
2022/10/26 10:14:25;;;;;;;3.67;3.37;;;24.80;99.90;;;;;;5093992;28;20474;-84
2022/10/26 10:16:55;;;;;;;5.23;4.77;;;27.00;99.90;;;;;;5090702;28;20880;-81
2022/10/26 10:19:26;;;;;;;4.20;3.50;;;29.40;99.90;;;;;;5086784;28;20507;-83
2022/10/26 10:21:56;;;;;;;4.20;3.90;;;30.20;99.90;;;;;;5089377;28;20630;-82
2022/10/26 10:24:27;;;;;;;7.60;3.77;;;31.20;99.90;;;;;;5090641;28;20988;-82
2022/10/26 10:26:58;;;;;;;4.03;3.60;;;32.20;99.90;;;;;;5082258;28;20538;-82
2022/10/26 10:29:26;;;;;;;5.10;3.23;;;32.80;99.90;;;;;;5086873;28;20474;-83
2022/10/26 10:31:59;;;;;;;3.03;2.63;;;32.00;99.90;;;;;;5082211;28;20545;-83
2022/10/26 10:34:31;;;;;;;3.50;3.20;;;29.90;99.90;;;;;;5082711;28;20470;-82
2022/10/26 10:36:59;;;;;;;3.00;2.80;;;28.60;99.90;;;;;;5085352;28;20446;-82
2022/10/26 10:39:39;;;;;;;3.40;3.10;;;28.90;99.90;;;;;;5086417;28;20496;-81
2022/10/26 10:42:17;;;;;;;8.03;2.53;;;29.90;99.90;;;;;;5091569;28;21023;-82
2022/10/26 10:44:47;;;;;;;2.80;2.67;;;31.50;99.90;;;;;;5091544;28;20455;-81
2022/10/26 10:47:21;;;;;;;3.60;2.20;;;33.10;99.90;;;;;;5086177;28;20458;-81
2022/10/26 10:49:58;;;;;;;3.80;2.50;;;33.30;99.90;;;;;;5088549;28;20469;-82
2022/10/26 10:52:28;;;;;;;2.00;1.80;;;34.80;99.90;;;;;;5080609;28;20454;-84
2022/10/26 10:55:19;;;;;;;3.80;2.47;;;32.50;99.90;;;;;;5086377;28;20469;-83
2022/10/26 10:58:08;;;;;;;2.83;2.60;;;29.90;99.90;;;;;;5079983;28;21046;-82
2022/10/26 11:00:37;;;;;;;3.70;2.70;;;27.20;99.90;;;;;;5092706;28;20458;-82
2022/10/26 11:03:37;;;;;;;2.23;2.03;;;26.60;99.90;;;;;;5076660;28;20471;-81
2022/10/26 11:06:13;;;;;;;3.00;2.73;;;24.90;99.90;;;;;;5073048;28;20458;-84
2022/10/26 11:08:46;;;;;;;6.73;3.30;;;23.90;99.90;;;;;;5081216;28;20458;-82
2022/10/26 11:11:18;;;;;;;2.50;2.27;;;23.30;99.90;;;;;;5076767;28;20446;-81
2022/10/26 11:13:52;;;;;;;3.00;2.70;;;22.80;99.90;;;;;;5074815;28;20466;-82
2022/10/26 11:16:25;;;;;;;3.10;2.80;;;22.40;99.90;;;;;;5071589;28;20523;-82
2022/10/26 11:18:59;;;;;;;2.93;2.70;;;22.00;99.90;;;;;;5083787;28;20453;-83
2022/10/26 11:21:30;;;;;;;4.50;2.27;;;21.80;99.90;;;;;;5088382;28;21288;-82
2022/10/26 11:24:13;;;;;;;5.43;2.50;;;21.60;1.00;;;;;;5080967;28;20949;-81
2022/10/26 11:26:46;;;;;;;2.50;2.30;;;21.50;99.90;;;;;;5091098;28;20557;-81
2022/10/26 11:29:23;;;;;;;2.37;2.17;;;21.50;1.00;;;;;;5088138;28;20556;-81
2022/10/26 11:31:58;;;;;;;3.57;2.47;;;21.50;1.00;;;;;;5079733;28;20472;-82
2022/10/26 11:34:32;;;;;;;6.10;2.93;;;21.60;1.00;;;;;;5077975;28;20476;-81
2022/10/26 11:37:07;;;;;;;5.07;3.03;;;21.40;1.00;;;;;;5093794;28;20465;-82
2022/10/26 11:39:43;;;;;;;4.43;3.20;;;21.50;1.00;;;;;;5084349;28;20453;-81
2022/10/26 11:42:20;;;;;;;4.90;1.97;;;21.60;1.00;;;;;;5084657;28;20478;-82
2022/10/26 11:44:55;;;;;;;7.03;2.40;;;21.60;99.90;;;;;;5093479;28;20448;-83
2022/10/26 11:47:34;;;;;;;6.90;2.50;;;21.60;99.90;;;;;;5090438;28;20488;-81
2022/10/26 11:50:06;;;;;;;6.03;2.40;;;21.50;99.90;;;;;;5083753;28;20457;-81
2022/10/26 11:52:41;;;;;;;3.07;2.23;;;21.50;99.90;;;;;;5084863;28;20809;-82
2022/10/26 11:55:11;;;;;;;6.03;2.63;;;21.60;1.00;;;;;;5092665;28;20479;-82
2022/10/26 11:57:40;;;;;;;3.53;2.30;;;21.60;1.00;;;;;;5087027;28;21036;-81
2022/10/26 12:00:16;;;;;;;3.90;3.07;;;21.50;1.00;;;;;;5086241;28;20454;-82
2022/10/26 12:02:49;;;;;;;2.83;2.50;;;21.40;1.00;;;;;;5080851;28;20535;-81
2022/10/26 12:05:22;;;;;;;4.07;2.70;;;21.30;1.00;;;;;;5082944;28;20495;-83
2022/10/26 12:07:54;;;;;;;3.03;2.53;;;21.20;1.00;;;;;;5095764;28;20457;-82
2022/10/26 12:10:27;;;;;;;2.93;2.37;;;21.10;1.00;;;;;;5091011;28;20464;-82
2022/10/26 12:13:04;;;;;;;5.10;2.20;;;21.00;1.00;;;;;;5091341;28;20473;-83
2022/10/26 12:15:39;;;;;;;2.60;2.40;;;21.10;1.00;;;;;;5080627;28;20465;-81
2022/10/26 12:18:38;;;;;;;6.37;2.33;;;21.10;1.00;;;;;;5089913;28;20553;-81
2022/10/26 12:21:27;;;;;;;6.13;3.03;;;21.20;1.00;;;;;;5083252;28;21002;-82
2022/10/26 12:23:59;;;;;;;4.33;2.47;;;21.10;1.00;;;;;;5092043;28;21240;-81
2022/10/26 12:26:51;;;;;;;4.53;2.50;;;21.10;1.00;;;;;;5088671;28;20710;-81
2022/10/26 12:29:40;;;;;;;4.43;2.93;;;21.10;1.00;;;;;;5082247;28;20439;-81
2022/10/26 12:32:47;;;;;;;3.00;2.20;;;21.30;1.00;;;;;;5084120;28;20865;-81
2022/10/26 12:35:37;;;;;;;2.63;2.00;;;21.30;99.90;;;;;;5085665;28;20547;-82
2022/10/26 12:38:48;;;;;;;2.60;2.40;;;21.40;1.00;;;;;;5088049;28;20808;-81
2022/10/26 12:41:23;;;;;;;2.27;2.10;;;21.40;1.00;;;;;;5058377;28;20472;-81
2022/10/26 12:43:58;;;;;;;3.17;2.33;;;21.40;1.00;;;;;;5088273;28;20460;-82
2022/10/26 12:46:44;;;;;;;4.83;2.57;;;21.40;1.00;;;;;;5082156;28;20531;-80
2022/10/26 12:49:55;;;;;;;4.57;2.20;;;21.40;1.00;;;;;;5088226;28;20449;-82
2022/10/26 12:52:40;;;;;;;3.50;2.30;;;21.50;1.00;;;;;;5080323;28;20607;-82
2022/10/26 12:55:47;;;;;;;3.97;2.50;;;21.60;1.00;;;;;;5088407;28;20465;-83
2022/10/26 12:58:57;;;;;;;3.43;2.10;;;21.60;1.00;;;;;;5103852;28;20442;-81
2022/10/26 13:02:08;;;;;;;2.80;2.27;;;21.50;1.00;;;;;;5082911;28;20852;-83
2022/10/26 13:05:17;;;;;;;2.70;2.50;;;21.70;1.00;;;;;;5082395;28;20447;-81
2022/10/26 13:07:46;;;;;;;5.20;2.80;;;21.90;1.00;;;;;;5079765;28;20453;-78
2022/10/26 13:10:21;;;;;;;2.77;2.57;;;21.90;1.00;;;;;;5087840;28;20467;-81
2022/10/26 13:12:52;;;;;;;5.33;2.53;;;21.90;99.90;;;;;;5092053;28;21203;-82
2022/10/26 13:15:25;;;;;;;3.47;2.80;;;21.90;99.90;;;;;;5079988;28;21064;-81
2022/10/26 13:18:01;;;;;;;8.97;2.57;;;21.80;99.90;;;;;;5084487;28;20468;-81
2022/10/26 13:20:31;;;;;;;5.27;2.97;;;21.90;99.90;;;;;;5087602;28;20509;-81